GJS4499 KEWR-KDCA
Flight info
| Callsign | GJS4499 |
|---|---|
| Flight time | 0h 43m |
| Altitude | 16000 |
| Route | BIGGY Q75 MXE CLIPR3 |
| Aircraft | CRJ7/M-SDFGIRWY/S |
Departure
| Time | 2026-05-03 20:15 |
|---|---|
| Airport | Newark Liberty International Airport (KEWR) |
Arrival
| Time | 2026-05-03 20:58 |
|---|---|
| Airport | Ronald Reagan Washington National Airport (KDCA) |
| Time | Latitude | Longitude | Altitude | Speed | Heading |
|---|---|---|---|---|---|
| 2026-05-03 20:15 | 40.72561 | -74.46727 | 10974 ft | 301 kts | 239° |
| 2026-05-03 20:15 | 40.71292 | -74.48966 | 11660 ft | 306 kts | 237° |
| 2026-05-03 20:15 | 40.69981 | -74.51154 | 12355 ft | 310 kts | 237° |
| 2026-05-03 20:15 | 40.68624 | -74.53394 | 13044 ft | 314 kts | 237° |
| 2026-05-03 20:16 | 40.67259 | -74.55673 | 13743 ft | 317 kts | 237° |
| 2026-05-03 20:16 | 40.65890 | -74.57991 | 14374 ft | 320 kts | 238° |
| 2026-05-03 20:16 | 40.64511 | -74.60282 | 15014 ft | 323 kts | 237° |
| 2026-05-03 20:16 | 40.63096 | -74.62605 | 15560 ft | 328 kts | 237° |
| 2026-05-03 20:17 | 40.61656 | -74.64970 | 15827 ft | 334 kts | 237° |
| 2026-05-03 20:17 | 40.60183 | -74.67398 | 15930 ft | 339 kts | 237° |
| 2026-05-03 20:17 | 40.58728 | -74.69784 | 15977 ft | 337 kts | 237° |
| 2026-05-03 20:17 | 40.57259 | -74.72194 | 15999 ft | 337 kts | 237° |
| 2026-05-03 20:18 | 40.55791 | -74.74603 | 15995 ft | 336 kts | 237° |
| 2026-05-03 20:18 | 40.54342 | -74.76977 | 16002 ft | 336 kts | 237° |
| 2026-05-03 20:18 | 40.52869 | -74.79386 | 16008 ft | 337 kts | 237° |
| 2026-05-03 20:18 | 40.51395 | -74.81801 | 16009 ft | 338 kts | 237° |
| 2026-05-03 20:19 | 40.49933 | -74.84188 | 16009 ft | 338 kts | 237° |
| 2026-05-03 20:19 | 40.48455 | -74.86600 | 16008 ft | 337 kts | 237° |
| 2026-05-03 20:19 | 40.46999 | -74.88982 | 16020 ft | 337 kts | 237° |
| 2026-05-03 20:19 | 40.45527 | -74.91382 | 16023 ft | 337 kts | 237° |
| 2026-05-03 20:20 | 40.44054 | -74.93781 | 16038 ft | 337 kts | 237° |
| 2026-05-03 20:20 | 40.42570 | -74.96188 | 16040 ft | 341 kts | 237° |
| 2026-05-03 20:20 | 40.41022 | -74.98599 | 16055 ft | 347 kts | 235° |
| 2026-05-03 20:20 | 40.39406 | -75.00969 | 16036 ft | 350 kts | 233° |
| 2026-05-03 20:21 | 40.37753 | -75.03282 | 16047 ft | 350 kts | 233° |
| 2026-05-03 20:21 | 40.36077 | -75.05622 | 16038 ft | 352 kts | 233° |
| 2026-05-03 20:21 | 40.34393 | -75.07990 | 16029 ft | 356 kts | 233° |
| 2026-05-03 20:21 | 40.32694 | -75.10368 | 16035 ft | 358 kts | 233° |
| 2026-05-03 20:22 | 40.31007 | -75.12732 | 16030 ft | 357 kts | 233° |
| 2026-05-03 20:22 | 40.29305 | -75.15121 | 16017 ft | 356 kts | 232° |
| 2026-05-03 20:22 | 40.27606 | -75.17500 | 16017 ft | 356 kts | 233° |
| 2026-05-03 20:22 | 40.25934 | -75.19836 | 16027 ft | 356 kts | 232° |
| 2026-05-03 20:23 | 40.24231 | -75.22207 | 16044 ft | 355 kts | 233° |
| 2026-05-03 20:23 | 40.22561 | -75.24541 | 16039 ft | 353 kts | 233° |
| 2026-05-03 20:23 | 40.20883 | -75.26883 | 16029 ft | 352 kts | 233° |
| 2026-05-03 20:23 | 40.19204 | -75.29223 | 16040 ft | 350 kts | 233° |
| 2026-05-03 20:24 | 40.17538 | -75.31552 | 16043 ft | 350 kts | 233° |
| 2026-05-03 20:24 | 40.15895 | -75.33842 | 16049 ft | 353 kts | 233° |
| 2026-05-03 20:24 | 40.14197 | -75.36203 | 16054 ft | 357 kts | 232° |
| 2026-05-03 20:24 | 40.12487 | -75.38554 | 16061 ft | 356 kts | 232° |
| 2026-05-03 20:25 | 40.10805 | -75.40851 | 16055 ft | 356 kts | 232° |
| 2026-05-03 20:25 | 40.09077 | -75.43212 | 16055 ft | 354 kts | 232° |
| 2026-05-03 20:25 | 40.07378 | -75.45560 | 16067 ft | 353 kts | 232° |
| 2026-05-03 20:25 | 40.05695 | -75.47897 | 16079 ft | 352 kts | 232° |
| 2026-05-03 20:26 | 40.04032 | -75.50203 | 16076 ft | 352 kts | 232° |
| 2026-05-03 20:26 | 40.02345 | -75.52539 | 16071 ft | 350 kts | 232° |
| 2026-05-03 20:26 | 40.00685 | -75.54840 | 16064 ft | 352 kts | 232° |
| 2026-05-03 20:26 | 39.99004 | -75.57163 | 16059 ft | 352 kts | 232° |
| 2026-05-03 20:27 | 39.97881 | -75.58713 | 16065 ft | 352 kts | 232° |
| 2026-05-03 20:27 | 39.95648 | -75.61792 | 16075 ft | 352 kts | 232° |
| 2026-05-03 20:27 | 39.94511 | -75.63362 | 16074 ft | 352 kts | 232° |
| 2026-05-03 20:27 | 39.92834 | -75.65668 | 16071 ft | 353 kts | 232° |
| 2026-05-03 20:28 | 39.91205 | -75.68039 | 16074 ft | 350 kts | 238° |
| 2026-05-03 20:28 | 39.89802 | -75.70611 | 16081 ft | 347 kts | 242° |
| 2026-05-03 20:28 | 39.88493 | -75.73268 | 16066 ft | 345 kts | 243° |
| 2026-05-03 20:28 | 39.87211 | -75.75873 | 16059 ft | 345 kts | 243° |
| 2026-05-03 20:29 | 39.85891 | -75.78511 | 16061 ft | 347 kts | 242° |
| 2026-05-03 20:29 | 39.84546 | -75.81102 | 16065 ft | 349 kts | 242° |
| 2026-05-03 20:29 | 39.83175 | -75.83733 | 16057 ft | 350 kts | 241° |
| 2026-05-03 20:29 | 39.81799 | -75.86368 | 16065 ft | 351 kts | 241° |
| 2026-05-03 20:30 | 39.80436 | -75.88976 | 16070 ft | 352 kts | 241° |
| 2026-05-03 20:30 | 39.79052 | -75.91622 | 16072 ft | 354 kts | 241° |
| 2026-05-03 20:30 | 39.77665 | -75.94273 | 16071 ft | 352 kts | 241° |
| 2026-05-03 20:30 | 39.76305 | -75.96874 | 16063 ft | 350 kts | 241° |
| 2026-05-03 20:31 | 39.74939 | -75.99480 | 16068 ft | 347 kts | 241° |
| 2026-05-03 20:31 | 39.73578 | -76.02074 | 16065 ft | 346 kts | 241° |
| 2026-05-03 20:31 | 39.72208 | -76.04674 | 16067 ft | 353 kts | 241° |
| 2026-05-03 20:31 | 39.70812 | -76.07325 | 16078 ft | 362 kts | 241° |
| 2026-05-03 20:32 | 39.69402 | -76.09997 | 15881 ft | 350 kts | 241° |
| 2026-05-03 20:32 | 39.68059 | -76.12523 | 15590 ft | 338 kts | 241° |
| 2026-05-03 20:32 | 39.66712 | -76.15044 | 15277 ft | 340 kts | 240° |
| 2026-05-03 20:32 | 39.65353 | -76.17595 | 14981 ft | 343 kts | 241° |
| 2026-05-03 20:33 | 39.64009 | -76.20132 | 14711 ft | 344 kts | 241° |
| 2026-05-03 20:33 | 39.62658 | -76.22689 | 14437 ft | 342 kts | 241° |
| 2026-05-03 20:33 | 39.61314 | -76.25231 | 14150 ft | 339 kts | 241° |
| 2026-05-03 20:33 | 39.59981 | -76.27752 | 13875 ft | 336 kts | 241° |
| 2026-05-03 20:34 | 39.58538 | -76.30151 | 13544 ft | 340 kts | 229° |
| 2026-05-03 20:34 | 39.56704 | -76.32068 | 13255 ft | 342 kts | 221° |
| 2026-05-03 20:34 | 39.54721 | -76.33787 | 12961 ft | 341 kts | 218° |
| 2026-05-03 20:34 | 39.52750 | -76.35418 | 12717 ft | 338 kts | 218° |
| 2026-05-03 20:35 | 39.50739 | -76.37082 | 12468 ft | 342 kts | 218° |
| 2026-05-03 20:35 | 39.48734 | -76.38757 | 12226 ft | 342 kts | 219° |
| 2026-05-03 20:35 | 39.46776 | -76.40444 | 12115 ft | 341 kts | 219° |
| 2026-05-03 20:35 | 39.44798 | -76.42150 | 12065 ft | 339 kts | 219° |
| 2026-05-03 20:36 | 39.42879 | -76.43819 | 11979 ft | 330 kts | 219° |
| 2026-05-03 20:36 | 39.40975 | -76.45469 | 11740 ft | 328 kts | 219° |
| 2026-05-03 20:36 | 39.39075 | -76.47122 | 11544 ft | 325 kts | 219° |
| 2026-05-03 20:36 | 39.37231 | -76.48718 | 11378 ft | 323 kts | 219° |
| 2026-05-03 20:37 | 39.35339 | -76.50353 | 11247 ft | 325 kts | 219° |
| 2026-05-03 20:37 | 39.33486 | -76.51956 | 11073 ft | 314 kts | 219° |
| 2026-05-03 20:37 | 39.31710 | -76.53503 | 10906 ft | 304 kts | 220° |
| 2026-05-03 20:37 | 39.29977 | -76.55011 | 10736 ft | 297 kts | 219° |
| 2026-05-03 20:38 | 39.28246 | -76.56500 | 10565 ft | 297 kts | 219° |
| 2026-05-03 20:38 | 39.26527 | -76.57973 | 10371 ft | 298 kts | 219° |
| 2026-05-03 20:38 | 39.24801 | -76.59458 | 10198 ft | 294 kts | 219° |
| 2026-05-03 20:38 | 39.23120 | -76.60907 | 10103 ft | 294 kts | 219° |
| 2026-05-03 20:39 | 39.21519 | -76.62289 | 10076 ft | 297 kts | 219° |
| 2026-05-03 20:39 | 39.19785 | -76.63782 | 10051 ft | 301 kts | 219° |
| 2026-05-03 20:39 | 39.18118 | -76.65213 | 10025 ft | 296 kts | 219° |
| 2026-05-03 20:39 | 39.16434 | -76.66753 | 10026 ft | 294 kts | 225° |
| 2026-05-03 20:40 | 39.14952 | -76.68454 | 10022 ft | 283 kts | 229° |
| 2026-05-03 20:40 | 39.13555 | -76.70202 | 10000 ft | 283 kts | 230° |
| 2026-05-03 20:40 | 39.12123 | -76.71997 | 10028 ft | 290 kts | 229° |
| 2026-05-03 20:40 | 39.11160 | -76.73200 | 10027 ft | 293 kts | 230° |
| 2026-05-03 20:41 | 39.10208 | -76.74375 | 9967 ft | 293 kts | 229° |
| 2026-05-03 20:41 | 39.08715 | -76.76152 | 9735 ft | 288 kts | 228° |
| 2026-05-03 20:41 | 39.07282 | -76.77853 | 9478 ft | 282 kts | 229° |
| 2026-05-03 20:41 | 39.05903 | -76.79585 | 9208 ft | 277 kts | 229° |
| 2026-05-03 20:42 | 39.04511 | -76.81266 | 8936 ft | 273 kts | 228° |
| 2026-05-03 20:42 | 39.03102 | -76.82948 | 8667 ft | 279 kts | 228° |
| 2026-05-03 20:42 | 39.01668 | -76.84646 | 8420 ft | 277 kts | 227° |
| 2026-05-03 20:42 | 39.00264 | -76.86282 | 8208 ft | 273 kts | 227° |
| 2026-05-03 20:43 | 38.98843 | -76.87922 | 8136 ft | 269 kts | 226° |
| 2026-05-03 20:43 | 38.97454 | -76.89503 | 8050 ft | 262 kts | 226° |
| 2026-05-03 20:43 | 38.96067 | -76.90998 | 8027 ft | 264 kts | 224° |
| 2026-05-03 20:43 | 38.94618 | -76.92473 | 8026 ft | 266 kts | 223° |
| 2026-05-03 20:44 | 38.93074 | -76.93832 | 7990 ft | 275 kts | 207° |
| 2026-05-03 20:44 | 38.91190 | -76.94298 | 7881 ft | 275 kts | 188° |
| 2026-05-03 20:44 | 38.89301 | -76.94338 | 7617 ft | 274 kts | 183° |
| 2026-05-03 20:44 | 38.87394 | -76.94284 | 7343 ft | 273 kts | 182° |
| 2026-05-03 20:45 | 38.85494 | -76.94237 | 7065 ft | 270 kts | 183° |
| 2026-05-03 20:45 | 38.83610 | -76.94248 | 6751 ft | 269 kts | 185° |
| 2026-05-03 20:45 | 38.81765 | -76.94322 | 6436 ft | 268 kts | 185° |
| 2026-05-03 20:45 | 38.79897 | -76.94390 | 6085 ft | 267 kts | 185° |
| 2026-05-03 20:46 | 38.78035 | -76.94455 | 5773 ft | 266 kts | 185° |
| 2026-05-03 20:46 | 38.76177 | -76.94405 | 5410 ft | 268 kts | 180° |
| 2026-05-03 20:46 | 38.74333 | -76.94232 | 4990 ft | 271 kts | 178° |
| 2026-05-03 20:46 | 38.72446 | -76.94016 | 4563 ft | 272 kts | 178° |
| 2026-05-03 20:47 | 38.70562 | -76.93810 | 4268 ft | 268 kts | 179° |
| 2026-05-03 20:47 | 38.68660 | -76.93591 | 4149 ft | 277 kts | 177° |
| 2026-05-03 20:47 | 38.66821 | -76.93368 | 4062 ft | 261 kts | 178° |
| 2026-05-03 20:47 | 38.65056 | -76.93123 | 4065 ft | 249 kts | 176° |
| 2026-05-03 20:48 | 38.63359 | -76.92847 | 4104 ft | 244 kts | 177° |
| 2026-05-03 20:48 | 38.61679 | -76.92568 | 4107 ft | 247 kts | 176° |
| 2026-05-03 20:48 | 38.59976 | -76.92285 | 4134 ft | 244 kts | 176° |
| 2026-05-03 20:48 | 38.58306 | -76.92043 | 4122 ft | 240 kts | 183° |
| 2026-05-03 20:49 | 38.56805 | -76.92622 | 4141 ft | 218 kts | 222° |
| 2026-05-03 20:49 | 38.56010 | -76.94128 | 4078 ft | 199 kts | 256° |
| 2026-05-03 20:49 | 38.55648 | -76.95775 | 4059 ft | 189 kts | 261° |
| 2026-05-03 20:49 | 38.55402 | -76.97389 | 3835 ft | 186 kts | 263° |
| 2026-05-03 20:50 | 38.55205 | -76.98937 | 3762 ft | 165 kts | 261° |
| 2026-05-03 20:50 | 38.55062 | -77.00328 | 3780 ft | 156 kts | 269° |
| 2026-05-03 20:50 | 38.55458 | -77.01588 | 3735 ft | 166 kts | 319° |
| 2026-05-03 20:50 | 38.56535 | -77.01959 | 3484 ft | 165 kts | 358° |
| 2026-05-03 20:51 | 38.57638 | -77.01946 | 3230 ft | 157 kts | 355° |
| 2026-05-03 20:51 | 38.58677 | -77.01941 | 2994 ft | 145 kts | 355° |
| 2026-05-03 20:51 | 38.59684 | -77.01925 | 2882 ft | 143 kts | 355° |
| 2026-05-03 20:51 | 38.60690 | -77.01900 | 2962 ft | 149 kts | 356° |
| 2026-05-03 20:52 | 38.61743 | -77.01869 | 2958 ft | 152 kts | 356° |
| 2026-05-03 20:52 | 38.62805 | -77.01836 | 2910 ft | 148 kts | 356° |
| 2026-05-03 20:52 | 38.63878 | -77.01810 | 2852 ft | 162 kts | 355° |
| 2026-05-03 20:52 | 38.65025 | -77.01807 | 2817 ft | 165 kts | 355° |
| 2026-05-03 20:53 | 38.66184 | -77.01779 | 2930 ft | 168 kts | 354° |
| 2026-05-03 20:53 | 38.67356 | -77.01862 | 2789 ft | 165 kts | 350° |
| 2026-05-03 20:53 | 38.68450 | -77.01982 | 2592 ft | 152 kts | 347° |
| 2026-05-03 20:53 | 38.69503 | -77.02182 | 2363 ft | 152 kts | 346° |
| 2026-05-03 20:54 | 38.70543 | -77.02417 | 2249 ft | 154 kts | 346° |
| 2026-05-03 20:54 | 38.72647 | -77.02733 | 2142 ft | 157 kts | 349° |
| 2026-05-03 20:54 | 38.73737 | -77.02853 | 2179 ft | 148 kts | 353° |
| 2026-05-03 20:55 | 38.74736 | -77.02818 | 2041 ft | 144 kts | 356° |
| 2026-05-03 20:55 | 38.75735 | -77.02787 | 1894 ft | 140 kts | 353° |
| 2026-05-03 20:55 | 38.76692 | -77.02840 | 1698 ft | 135 kts | 349° |
| 2026-05-03 20:55 | 38.77632 | -77.02921 | 1410 ft | 136 kts | 348° |
| 2026-05-03 20:56 | 38.78550 | -77.03064 | 1176 ft | 132 kts | 346° |
| 2026-05-03 20:56 | 38.79474 | -77.03188 | 962 ft | 133 kts | 348° |
| 2026-05-03 20:56 | 38.80386 | -77.03271 | 805 ft | 130 kts | 351° |
| 2026-05-03 20:56 | 38.81307 | -77.03352 | 632 ft | 131 kts | 349° |
| 2026-05-03 20:57 | 38.82196 | -77.03468 | 427 ft | 131 kts | 351° |
| 2026-05-03 20:57 | 38.83118 | -77.03561 | 263 ft | 131 kts | 350° |
| 2026-05-03 20:57 | 38.83269 | -77.03576 | 225 ft | 130 kts | 350° |
| 2026-05-03 20:57 | 38.84155 | -77.03673 | 46 ft | 125 kts | 352° |
| 2026-05-03 20:58 | 38.84950 | -77.03758 | 18 ft | 98 kts | 355° |
| 2026-05-03 20:58 | 38.85396 | -77.03804 | 19 ft | 41 kts | 352° |
| 2026-05-03 20:58 | 38.85509 | -77.03861 | 22 ft | 12 kts | 313° |
| 2026-05-03 20:58 | 38.85530 | -77.03930 | 22 ft | 7 kts | 252° |
| 2026-05-03 20:59 | 38.85490 | -77.03950 | 21 ft | 8 kts | 179° |
| 2026-05-03 20:59 | 38.85426 | -77.03945 | 20 ft | 11 kts | 175° |
| 2026-05-03 20:59 | 38.85340 | -77.03936 | 19 ft | 14 kts | 174° |
| 2026-05-03 20:59 | 38.85252 | -77.03926 | 17 ft | 11 kts | 175° |
| 2026-05-03 21:00 | 38.85180 | -77.03919 | 17 ft | 9 kts | 175° |
| 2026-05-03 21:00 | 38.85162 | -77.03917 | 18 ft | 8 kts | 175° |
| 2026-05-03 21:00 | 38.85059 | -77.03907 | 17 ft | 9 kts | 175° |
| 2026-05-03 21:00 | 38.85030 | -77.03904 | 17 ft | 4 kts | 176° |
| 2026-05-03 21:01 | 38.84996 | -77.03914 | 16 ft | 6 kts | 221° |
| 2026-05-03 21:01 | 38.84983 | -77.03951 | 16 ft | 3 kts | 256° |
| 2026-05-03 21:01 | 38.84984 | -77.03981 | 16 ft | 3 kts | 285° |
| 2026-05-03 21:01 | 38.84992 | -77.04009 | 17 ft | 3 kts | 293° |
| 2026-05-03 21:02 | 38.85000 | -77.04033 | 18 ft | 3 kts | 294° |
| 2026-05-03 21:02 | 38.85002 | -77.04038 | 18 ft | 0 kts | 296° |